sensor_id;sensor_type;location;lat;lon;timestamp;P1;durP1;ratioP1;P2;durP2;ratioP2
64520;SDS011;50896;46.714;17.322;2023-03-14T00:01:11;3.22;;;1.48;;
64520;SDS011;50896;46.714;17.322;2023-03-14T00:03:43;4.68;;;1.65;;
64520;SDS011;50896;46.714;17.322;2023-03-14T00:06:11;4.20;;;1.58;;
64520;SDS011;50896;46.714;17.322;2023-03-14T00:08:38;3.17;;;1.67;;
64520;SDS011;50896;46.714;17.322;2023-03-14T00:11:07;4.63;;;1.73;;
64520;SDS011;50896;46.714;17.322;2023-03-14T00:13:35;4.30;;;1.75;;
64520;SDS011;50896;46.714;17.322;2023-03-14T00:16:06;5.70;;;1.75;;
64520;SDS011;50896;46.714;17.322;2023-03-14T00:18:37;4.47;;;1.50;;
64520;SDS011;50896;46.714;17.322;2023-03-14T00:21:05;5.45;;;1.80;;
64520;SDS011;50896;46.714;17.322;2023-03-14T00:23:33;4.03;;;1.63;;
64520;SDS011;50896;46.714;17.322;2023-03-14T00:26:20;6.50;;;2.00;;
64520;SDS011;50896;46.714;17.322;2023-03-14T00:28:50;2.38;;;1.50;;
64520;SDS011;50896;46.714;17.322;2023-03-14T00:31:18;4.10;;;1.52;;
64520;SDS011;50896;46.714;17.322;2023-03-14T00:33:45;3.70;;;1.50;;
64520;SDS011;50896;46.714;17.322;2023-03-14T00:36:16;4.07;;;1.48;;
64520;SDS011;50896;46.714;17.322;2023-03-14T00:38:44;3.90;;;1.48;;
64520;SDS011;50896;46.714;17.322;2023-03-14T00:41:13;4.05;;;1.80;;
64520;SDS011;50896;46.714;17.322;2023-03-14T00:43:41;2.97;;;1.50;;
64520;SDS011;50896;46.714;17.322;2023-03-14T00:46:09;4.25;;;1.40;;
64520;SDS011;50896;46.714;17.322;2023-03-14T00:48:36;3.67;;;1.80;;
64520;SDS011;50896;46.714;17.322;2023-03-14T00:51:04;3.42;;;1.40;;
64520;SDS011;50896;46.714;17.322;2023-03-14T00:53:34;5.28;;;1.23;;
64520;SDS011;50896;46.714;17.322;2023-03-14T00:56:04;4.00;;;1.20;;
64520;SDS011;50896;46.714;17.322;2023-03-14T00:58:32;3.30;;;1.13;;
64520;SDS011;50896;46.714;17.322;2023-03-14T01:01:04;2.72;;;1.17;;
64520;SDS011;50896;46.714;17.322;2023-03-14T01:03:36;3.90;;;1.30;;
64520;SDS011;50896;46.714;17.322;2023-03-14T01:06:07;1.35;;;0.98;;
64520;SDS011;50896;46.714;17.322;2023-03-14T01:08:34;6.00;;;1.63;;
64520;SDS011;50896;46.714;17.322;2023-03-14T01:11:04;2.03;;;1.10;;
64520;SDS011;50896;46.714;17.322;2023-03-14T01:13:35;3.15;;;1.15;;
64520;SDS011;50896;46.714;17.322;2023-03-14T01:16:03;3.05;;;0.98;;
64520;SDS011;50896;46.714;17.322;2023-03-14T01:18:36;1.80;;;1.08;;
64520;SDS011;50896;46.714;17.322;2023-03-14T01:21:09;2.25;;;1.00;;
64520;SDS011;50896;46.714;17.322;2023-03-14T01:23:56;2.88;;;1.02;;
64520;SDS011;50896;46.714;17.322;2023-03-14T01:26:25;3.55;;;1.30;;
64520;SDS011;50896;46.714;17.322;2023-03-14T01:28:54;2.35;;;1.10;;
64520;SDS011;50896;46.714;17.322;2023-03-14T01:31:23;2.05;;;1.00;;
64520;SDS011;50896;46.714;17.322;2023-03-14T01:33:51;3.55;;;1.20;;
64520;SDS011;50896;46.714;17.322;2023-03-14T01:36:18;3.75;;;1.17;;
64520;SDS011;50896;46.714;17.322;2023-03-14T01:38:45;3.88;;;1.20;;
64520;SDS011;50896;46.714;17.322;2023-03-14T01:41:19;4.38;;;1.40;;
64520;SDS011;50896;46.714;17.322;2023-03-14T01:43:52;4.25;;;1.20;;
64520;SDS011;50896;46.714;17.322;2023-03-14T01:46:21;4.70;;;1.35;;
64520;SDS011;50896;46.714;17.322;2023-03-14T01:51:34;5.68;;;1.48;;
64520;SDS011;50896;46.714;17.322;2023-03-14T01:54:05;6.32;;;1.33;;
64520;SDS011;50896;46.714;17.322;2023-03-14T01:56:39;3.38;;;1.40;;
64520;SDS011;50896;46.714;17.322;2023-03-14T01:59:10;2.70;;;1.20;;
64520;SDS011;50896;46.714;17.322;2023-03-14T02:01:38;2.70;;;1.27;;
64520;SDS011;50896;46.714;17.322;2023-03-14T02:04:09;3.47;;;1.10;;
64520;SDS011;50896;46.714;17.322;2023-03-14T02:06:44;3.00;;;1.60;;
64520;SDS011;50896;46.714;17.322;2023-03-14T02:09:17;3.70;;;1.38;;
64520;SDS011;50896;46.714;17.322;2023-03-14T02:11:46;3.40;;;1.50;;
64520;SDS011;50896;46.714;17.322;2023-03-14T02:14:30;6.75;;;1.83;;
64520;SDS011;50896;46.714;17.322;2023-03-14T02:17:31;8.25;;;1.42;;
64520;SDS011;50896;46.714;17.322;2023-03-14T02:22:54;2.40;;;1.42;;
64520;SDS011;50896;46.714;17.322;2023-03-14T02:28:14;3.40;;;1.52;;
64520;SDS011;50896;46.714;17.322;2023-03-14T02:30:42;4.18;;;1.50;;
64520;SDS011;50896;46.714;17.322;2023-03-14T02:33:13;3.55;;;1.50;;
64520;SDS011;50896;46.714;17.322;2023-03-14T02:35:59;6.15;;;1.67;;
64520;SDS011;50896;46.714;17.322;2023-03-14T02:40:59;3.95;;;1.60;;
64520;SDS011;50896;46.714;17.322;2023-03-14T02:43:28;5.78;;;1.60;;
64520;SDS011;50896;46.714;17.322;2023-03-14T02:45:59;2.50;;;1.48;;
64520;SDS011;50896;46.714;17.322;2023-03-14T02:48:48;3.25;;;1.60;;
64520;SDS011;50896;46.714;17.322;2023-03-14T02:51:20;3.17;;;1.40;;
64520;SDS011;50896;46.714;17.322;2023-03-14T02:53:48;3.60;;;1.50;;
64520;SDS011;50896;46.714;17.322;2023-03-14T02:56:15;3.65;;;1.35;;
64520;SDS011;50896;46.714;17.322;2023-03-14T02:58:43;3.45;;;1.40;;
64520;SDS011;50896;46.714;17.322;2023-03-14T03:01:27;4.35;;;1.40;;
64520;SDS011;50896;46.714;17.322;2023-03-14T03:03:55;3.30;;;1.45;;
64520;SDS011;50896;46.714;17.322;2023-03-14T03:06:21;3.40;;;1.23;;
64520;SDS011;50896;46.714;17.322;2023-03-14T03:08:49;3.90;;;1.63;;
64520;SDS011;50896;46.714;17.322;2023-03-14T03:11:16;3.72;;;1.85;;
64520;SDS011;50896;46.714;17.322;2023-03-14T03:13:43;4.80;;;1.50;;
64520;SDS011;50896;46.714;17.322;2023-03-14T03:16:13;3.85;;;1.30;;
64520;SDS011;50896;46.714;17.322;2023-03-14T03:18:41;4.38;;;1.70;;
64520;SDS011;50896;46.714;17.322;2023-03-14T03:21:08;3.70;;;1.50;;
64520;SDS011;50896;46.714;17.322;2023-03-14T03:23:36;3.10;;;1.30;;
64520;SDS011;50896;46.714;17.322;2023-03-14T03:26:04;5.03;;;1.52;;
64520;SDS011;50896;46.714;17.322;2023-03-14T03:28:32;4.22;;;1.20;;
64520;SDS011;50896;46.714;17.322;2023-03-14T03:30:58;2.08;;;1.20;;
64520;SDS011;50896;46.714;17.322;2023-03-14T03:33:26;3.03;;;1.10;;
64520;SDS011;50896;46.714;17.322;2023-03-14T03:35:53;3.50;;;1.38;;
64520;SDS011;50896;46.714;17.322;2023-03-14T03:38:27;4.05;;;1.30;;
64520;SDS011;50896;46.714;17.322;2023-03-14T03:40:55;5.32;;;1.65;;
64520;SDS011;50896;46.714;17.322;2023-03-14T03:43:25;3.30;;;1.10;;
64520;SDS011;50896;46.714;17.322;2023-03-14T03:45:51;2.47;;;1.23;;
64520;SDS011;50896;46.714;17.322;2023-03-14T03:48:21;3.15;;;1.20;;
64520;SDS011;50896;46.714;17.322;2023-03-14T03:50:48;2.17;;;1.00;;
64520;SDS011;50896;46.714;17.322;2023-03-14T03:53:18;8.38;;;1.65;;
64520;SDS011;50896;46.714;17.322;2023-03-14T03:56:00;4.30;;;1.48;;
64520;SDS011;50896;46.714;17.322;2023-03-14T03:58:28;4.72;;;1.42;;
64520;SDS011;50896;46.714;17.322;2023-03-14T04:00:55;4.70;;;1.42;;
64520;SDS011;50896;46.714;17.322;2023-03-14T04:03:22;3.85;;;1.05;;
64520;SDS011;50896;46.714;17.322;2023-03-14T04:06:02;4.43;;;1.05;;
64520;SDS011;50896;46.714;17.322;2023-03-14T04:08:32;4.38;;;1.02;;
64520;SDS011;50896;46.714;17.322;2023-03-14T04:11:00;4.35;;;1.45;;
64520;SDS011;50896;46.714;17.322;2023-03-14T04:13:45;3.47;;;1.38;;
64520;SDS011;50896;46.714;17.322;2023-03-14T04:16:17;5.30;;;1.30;;
64520;SDS011;50896;46.714;17.322;2023-03-14T04:18:46;6.10;;;1.40;;
64520;SDS011;50896;46.714;17.322;2023-03-14T04:21:14;3.80;;;1.30;;
64520;SDS011;50896;46.714;17.322;2023-03-14T04:23:48;2.90;;;1.20;;
64520;SDS011;50896;46.714;17.322;2023-03-14T04:26:16;5.15;;;1.30;;
64520;SDS011;50896;46.714;17.322;2023-03-14T04:28:43;5.10;;;1.25;;
64520;SDS011;50896;46.714;17.322;2023-03-14T04:31:12;2.85;;;1.05;;
64520;SDS011;50896;46.714;17.322;2023-03-14T04:33:43;3.13;;;1.10;;
64520;SDS011;50896;46.714;17.322;2023-03-14T04:38:41;3.00;;;1.00;;
64520;SDS011;50896;46.714;17.322;2023-03-14T04:41:09;4.75;;;1.58;;
64520;SDS011;50896;46.714;17.322;2023-03-14T04:43:36;2.45;;;1.17;;
64520;SDS011;50896;46.714;17.322;2023-03-14T04:48:33;5.63;;;1.10;;
64520;SDS011;50896;46.714;17.322;2023-03-14T04:51:00;4.43;;;1.15;;
64520;SDS011;50896;46.714;17.322;2023-03-14T04:56:00;4.55;;;1.10;;
64520;SDS011;50896;46.714;17.322;2023-03-14T04:58:34;2.55;;;1.17;;
64520;SDS011;50896;46.714;17.322;2023-03-14T05:01:03;3.22;;;1.40;;
64520;SDS011;50896;46.714;17.322;2023-03-14T05:03:38;4.65;;;1.30;;
64520;SDS011;50896;46.714;17.322;2023-03-14T05:06:29;2.65;;;1.20;;
64520;SDS011;50896;46.714;17.322;2023-03-14T05:08:59;2.58;;;1.40;;
64520;SDS011;50896;46.714;17.322;2023-03-14T05:11:44;2.83;;;1.30;;
64520;SDS011;50896;46.714;17.322;2023-03-14T05:14:29;3.33;;;1.35;;
64520;SDS011;50896;46.714;17.322;2023-03-14T05:17:10;3.17;;;1.35;;
64520;SDS011;50896;46.714;17.322;2023-03-14T05:19:55;2.40;;;1.10;;
64520;SDS011;50896;46.714;17.322;2023-03-14T05:22:25;3.92;;;1.30;;
64520;SDS011;50896;46.714;17.322;2023-03-14T05:25:12;4.43;;;0.95;;
64520;SDS011;50896;46.714;17.322;2023-03-14T05:27:59;2.95;;;1.23;;
64520;SDS011;50896;46.714;17.322;2023-03-14T05:30:50;1.70;;;1.02;;
64520;SDS011;50896;46.714;17.322;2023-03-14T05:33:40;3.50;;;1.20;;
64520;SDS011;50896;46.714;17.322;2023-03-14T05:36:26;3.05;;;0.93;;
64520;SDS011;50896;46.714;17.322;2023-03-14T05:39:04;2.75;;;1.58;;
64520;SDS011;50896;46.714;17.322;2023-03-14T05:41:40;2.45;;;1.15;;
64520;SDS011;50896;46.714;17.322;2023-03-14T05:44:30;4.55;;;1.50;;
64520;SDS011;50896;46.714;17.322;2023-03-14T05:47:23;3.15;;;1.20;;
64520;SDS011;50896;46.714;17.322;2023-03-14T05:50:13;2.85;;;1.13;;
64520;SDS011;50896;46.714;17.322;2023-03-14T05:52:59;3.90;;;1.65;;
64520;SDS011;50896;46.714;17.322;2023-03-14T05:55:44;4.97;;;1.67;;
64520;SDS011;50896;46.714;17.322;2023-03-14T05:58:37;4.43;;;1.67;;
64520;SDS011;50896;46.714;17.322;2023-03-14T06:01:25;2.97;;;1.70;;
64520;SDS011;50896;46.714;17.322;2023-03-14T06:04:07;5.40;;;1.73;;
64520;SDS011;50896;46.714;17.322;2023-03-14T06:06:34;6.20;;;2.50;;
64520;SDS011;50896;46.714;17.322;2023-03-14T06:09:01;5.07;;;2.13;;
64520;SDS011;50896;46.714;17.322;2023-03-14T06:11:30;6.78;;;4.50;;
64520;SDS011;50896;46.714;17.322;2023-03-14T06:13:57;3.67;;;1.30;;
64520;SDS011;50896;46.714;17.322;2023-03-14T06:16:24;2.00;;;1.35;;
64520;SDS011;50896;46.714;17.322;2023-03-14T06:18:52;2.88;;;1.10;;
64520;SDS011;50896;46.714;17.322;2023-03-14T06:21:21;3.08;;;1.20;;
64520;SDS011;50896;46.714;17.322;2023-03-14T06:23:48;3.25;;;1.13;;
64520;SDS011;50896;46.714;17.322;2023-03-14T06:26:16;5.30;;;1.10;;
64520;SDS011;50896;46.714;17.322;2023-03-14T06:28:43;2.95;;;1.10;;
64520;SDS011;50896;46.714;17.322;2023-03-14T06:31:10;2.35;;;1.17;;
64520;SDS011;50896;46.714;17.322;2023-03-14T06:33:46;3.63;;;1.58;;
64520;SDS011;50896;46.714;17.322;2023-03-14T06:36:14;3.70;;;1.10;;
64520;SDS011;50896;46.714;17.322;2023-03-14T06:38:43;5.70;;;1.02;;
64520;SDS011;50896;46.714;17.322;2023-03-14T06:41:10;2.25;;;1.00;;
64520;SDS011;50896;46.714;17.322;2023-03-14T06:43:40;5.07;;;1.33;;
64520;SDS011;50896;46.714;17.322;2023-03-14T06:46:07;4.50;;;1.27;;
64520;SDS011;50896;46.714;17.322;2023-03-14T06:48:37;3.47;;;1.83;;
64520;SDS011;50896;46.714;17.322;2023-03-14T06:51:05;2.90;;;1.10;;
64520;SDS011;50896;46.714;17.322;2023-03-14T06:53:33;3.40;;;1.55;;
64520;SDS011;50896;46.714;17.322;2023-03-14T06:56:01;3.95;;;1.20;;
64520;SDS011;50896;46.714;17.322;2023-03-14T06:58:30;2.27;;;0.90;;
64520;SDS011;50896;46.714;17.322;2023-03-14T07:00:58;4.43;;;1.15;;
64520;SDS011;50896;46.714;17.322;2023-03-14T07:03:30;4.35;;;1.30;;
64520;SDS011;50896;46.714;17.322;2023-03-14T07:05:58;2.88;;;1.20;;
64520;SDS011;50896;46.714;17.322;2023-03-14T07:08:26;6.47;;;1.65;;
64520;SDS011;50896;46.714;17.322;2023-03-14T07:10:52;4.38;;;1.73;;
64520;SDS011;50896;46.714;17.322;2023-03-14T07:13:23;6.18;;;2.10;;
64520;SDS011;50896;46.714;17.322;2023-03-14T07:16:01;3.42;;;1.63;;
64520;SDS011;50896;46.714;17.322;2023-03-14T07:18:28;3.13;;;1.60;;
64520;SDS011;50896;46.714;17.322;2023-03-14T07:20:55;2.80;;;1.52;;
64520;SDS011;50896;46.714;17.322;2023-03-14T07:23:22;2.25;;;1.20;;
64520;SDS011;50896;46.714;17.322;2023-03-14T07:25:52;2.53;;;1.20;;
64520;SDS011;50896;46.714;17.322;2023-03-14T07:28:22;3.25;;;1.10;;
64520;SDS011;50896;46.714;17.322;2023-03-14T07:30:56;3.17;;;1.50;;
64520;SDS011;50896;46.714;17.322;2023-03-14T07:33:28;5.68;;;1.40;;
64520;SDS011;50896;46.714;17.322;2023-03-14T07:35:55;3.88;;;1.35;;
64520;SDS011;50896;46.714;17.322;2023-03-14T07:38:22;3.30;;;1.45;;
64520;SDS011;50896;46.714;17.322;2023-03-14T07:41:11;3.63;;;1.33;;
64520;SDS011;50896;46.714;17.322;2023-03-14T07:43:46;4.25;;;1.10;;
64520;SDS011;50896;46.714;17.322;2023-03-14T07:46:13;2.78;;;1.05;;
64520;SDS011;50896;46.714;17.322;2023-03-14T07:48:41;2.80;;;1.08;;
64520;SDS011;50896;46.714;17.322;2023-03-14T07:51:08;1.70;;;0.80;;
64520;SDS011;50896;46.714;17.322;2023-03-14T07:53:34;4.85;;;1.00;;
64520;SDS011;50896;46.714;17.322;2023-03-14T07:56:01;4.22;;;1.20;;
64520;SDS011;50896;46.714;17.322;2023-03-14T07:58:28;3.78;;;1.15;;
64520;SDS011;50896;46.714;17.322;2023-03-14T08:00:55;4.18;;;1.10;;
64520;SDS011;50896;46.714;17.322;2023-03-14T08:03:22;4.82;;;1.50;;
64520;SDS011;50896;46.714;17.322;2023-03-14T08:05:48;2.53;;;1.05;;
64520;SDS011;50896;46.714;17.322;2023-03-14T08:08:17;5.40;;;1.10;;
64520;SDS011;50896;46.714;17.322;2023-03-14T08:10:45;4.35;;;1.10;;
64520;SDS011;50896;46.714;17.322;2023-03-14T08:13:12;1.92;;;1.00;;
64520;SDS011;50896;46.714;17.322;2023-03-14T08:15:40;2.97;;;1.00;;
64520;SDS011;50896;46.714;17.322;2023-03-14T08:18:07;4.03;;;1.33;;
64520;SDS011;50896;46.714;17.322;2023-03-14T08:20:33;2.80;;;1.20;;
64520;SDS011;50896;46.714;17.322;2023-03-14T08:23:02;2.70;;;1.20;;
64520;SDS011;50896;46.714;17.322;2023-03-14T08:25:29;5.05;;;1.27;;
64520;SDS011;50896;46.714;17.322;2023-03-14T08:27:56;4.22;;;1.80;;
64520;SDS011;50896;46.714;17.322;2023-03-14T08:30:23;2.38;;;1.17;;
64520;SDS011;50896;46.714;17.322;2023-03-14T08:32:50;3.72;;;1.50;;
64520;SDS011;50896;46.714;17.322;2023-03-14T08:35:17;3.05;;;1.10;;
64520;SDS011;50896;46.714;17.322;2023-03-14T08:37:45;5.13;;;1.27;;
64520;SDS011;50896;46.714;17.322;2023-03-14T08:40:12;4.88;;;1.27;;
64520;SDS011;50896;46.714;17.322;2023-03-14T08:42:39;3.05;;;1.25;;
64520;SDS011;50896;46.714;17.322;2023-03-14T08:45:06;4.15;;;1.10;;
64520;SDS011;50896;46.714;17.322;2023-03-14T08:47:34;3.80;;;1.10;;
64520;SDS011;50896;46.714;17.322;2023-03-14T08:50:02;5.22;;;1.33;;
64520;SDS011;50896;46.714;17.322;2023-03-14T08:52:30;4.63;;;1.10;;
64520;SDS011;50896;46.714;17.322;2023-03-14T08:54:58;2.53;;;1.10;;
64520;SDS011;50896;46.714;17.322;2023-03-14T08:57:25;4.15;;;1.20;;
64520;SDS011;50896;46.714;17.322;2023-03-14T08:59:56;5.53;;;1.40;;
64520;SDS011;50896;46.714;17.322;2023-03-14T09:02:24;2.25;;;1.15;;
64520;SDS011;50896;46.714;17.322;2023-03-14T09:04:52;4.53;;;1.13;;
64520;SDS011;50896;46.714;17.322;2023-03-14T09:07:19;2.55;;;1.58;;
64520;SDS011;50896;46.714;17.322;2023-03-14T09:09:46;3.40;;;1.52;;
64520;SDS011;50896;46.714;17.322;2023-03-14T09:12:13;4.45;;;1.25;;
64520;SDS011;50896;46.714;17.322;2023-03-14T09:14:40;5.03;;;1.42;;
64520;SDS011;50896;46.714;17.322;2023-03-14T09:17:06;2.92;;;1.13;;
64520;SDS011;50896;46.714;17.322;2023-03-14T09:19:34;4.00;;;1.40;;
64520;SDS011;50896;46.714;17.322;2023-03-14T09:22:01;3.92;;;1.27;;
64520;SDS011;50896;46.714;17.322;2023-03-14T09:24:28;4.20;;;1.30;;
64520;SDS011;50896;46.714;17.322;2023-03-14T09:26:55;2.40;;;1.17;;
64520;SDS011;50896;46.714;17.322;2023-03-14T09:29:23;2.30;;;1.30;;
64520;SDS011;50896;46.714;17.322;2023-03-14T09:31:50;4.45;;;1.20;;
64520;SDS011;50896;46.714;17.322;2023-03-14T09:34:18;2.35;;;1.10;;
64520;SDS011;50896;46.714;17.322;2023-03-14T09:36:45;4.07;;;1.35;;
64520;SDS011;50896;46.714;17.322;2023-03-14T09:39:12;5.90;;;1.60;;
64520;SDS011;50896;46.714;17.322;2023-03-14T09:41:39;1.77;;;1.10;;
64520;SDS011;50896;46.714;17.322;2023-03-14T09:47:01;3.17;;;1.23;;
64520;SDS011;50896;46.714;17.322;2023-03-14T09:49:33;2.25;;;1.00;;
64520;SDS011;50896;46.714;17.322;2023-03-14T09:52:05;3.67;;;1.15;;
64520;SDS011;50896;46.714;17.322;2023-03-14T09:54:42;3.17;;;1.30;;
64520;SDS011;50896;46.714;17.322;2023-03-14T09:57:14;2.72;;;1.60;;
64520;SDS011;50896;46.714;17.322;2023-03-14T09:59:44;2.83;;;1.02;;
64520;SDS011;50896;46.714;17.322;2023-03-14T10:02:14;4.93;;;1.38;;
64520;SDS011;50896;46.714;17.322;2023-03-14T10:04:44;1.77;;;1.20;;
64520;SDS011;50896;46.714;17.322;2023-03-14T10:07:16;4.53;;;1.55;;
64520;SDS011;50896;46.714;17.322;2023-03-14T10:09:59;2.45;;;1.30;;
64520;SDS011;50896;46.714;17.322;2023-03-14T10:12:31;4.90;;;1.50;;
64520;SDS011;50896;46.714;17.322;2023-03-14T10:15:12;6.78;;;1.30;;
64520;SDS011;50896;46.714;17.322;2023-03-14T10:17:47;3.25;;;1.38;;
64520;SDS011;50896;46.714;17.322;2023-03-14T10:20:35;2.35;;;1.02;;
64520;SDS011;50896;46.714;17.322;2023-03-14T10:25:46;6.60;;;1.30;;
64520;SDS011;50896;46.714;17.322;2023-03-14T10:28:27;4.20;;;1.40;;
64520;SDS011;50896;46.714;17.322;2023-03-14T10:30:56;4.50;;;1.30;;
64520;SDS011;50896;46.714;17.322;2023-03-14T10:33:25;4.68;;;1.02;;
64520;SDS011;50896;46.714;17.322;2023-03-14T10:35:56;2.50;;;1.20;;
64520;SDS011;50896;46.714;17.322;2023-03-14T10:38:25;7.47;;;1.40;;
64520;SDS011;50896;46.714;17.322;2023-03-14T10:40:54;7.90;;;1.15;;
64520;SDS011;50896;46.714;17.322;2023-03-14T10:43:33;4.32;;;1.30;;
64520;SDS011;50896;46.714;17.322;2023-03-14T10:46:06;3.38;;;1.63;;
64520;SDS011;50896;46.714;17.322;2023-03-14T10:48:58;4.15;;;1.40;;
64520;SDS011;50896;46.714;17.322;2023-03-14T10:51:26;3.53;;;1.20;;
64520;SDS011;50896;46.714;17.322;2023-03-14T10:53:57;4.65;;;1.50;;
64520;SDS011;50896;46.714;17.322;2023-03-14T10:56:27;3.08;;;1.20;;
64520;SDS011;50896;46.714;17.322;2023-03-14T10:58:59;2.60;;;1.25;;
64520;SDS011;50896;46.714;17.322;2023-03-14T11:01:44;2.65;;;1.30;;
64520;SDS011;50896;46.714;17.322;2023-03-14T11:04:38;3.92;;;1.23;;
64520;SDS011;50896;46.714;17.322;2023-03-14T11:09:56;3.35;;;1.10;;
64520;SDS011;50896;46.714;17.322;2023-03-14T11:29:02;3.72;;;1.20;;
64520;SDS011;50896;46.714;17.322;2023-03-14T11:31:44;2.33;;;1.20;;
64520;SDS011;50896;46.714;17.322;2023-03-14T11:34:29;3.60;;;1.30;;
64520;SDS011;50896;46.714;17.322;2023-03-14T11:39:41;3.03;;;1.20;;
64520;SDS011;50896;46.714;17.322;2023-03-14T11:42:16;2.00;;;1.20;;
64520;SDS011;50896;46.714;17.322;2023-03-14T11:44:45;3.30;;;1.23;;
64520;SDS011;50896;46.714;17.322;2023-03-14T11:47:24;2.95;;;1.42;;
64520;SDS011;50896;46.714;17.322;2023-03-14T11:49:58;4.22;;;1.20;;
64520;SDS011;50896;46.714;17.322;2023-03-14T11:55:32;2.55;;;1.20;;
64520;SDS011;50896;46.714;17.322;2023-03-14T11:58:21;4.13;;;1.73;;
64520;SDS011;50896;46.714;17.322;2023-03-14T12:00:50;5.68;;;1.55;;
64520;SDS011;50896;46.714;17.322;2023-03-14T12:08:54;3.60;;;1.58;;
64520;SDS011;50896;46.714;17.322;2023-03-14T12:13:55;2.50;;;1.10;;
64520;SDS011;50896;46.714;17.322;2023-03-14T12:18:52;3.58;;;1.15;;
64520;SDS011;50896;46.714;17.322;2023-03-14T12:21:20;2.97;;;1.10;;
64520;SDS011;50896;46.714;17.322;2023-03-14T12:23:51;4.38;;;1.38;;
64520;SDS011;50896;46.714;17.322;2023-03-14T12:26:23;4.93;;;1.33;;
64520;SDS011;50896;46.714;17.322;2023-03-14T12:31:36;4.85;;;1.50;;
64520;SDS011;50896;46.714;17.322;2023-03-14T12:34:34;5.47;;;1.20;;
64520;SDS011;50896;46.714;17.322;2023-03-14T12:39:37;6.13;;;1.33;;
64520;SDS011;50896;46.714;17.322;2023-03-14T12:47:41;3.55;;;1.30;;
64520;SDS011;50896;46.714;17.322;2023-03-14T12:50:19;2.72;;;1.33;;
64520;SDS011;50896;46.714;17.322;2023-03-14T12:53:10;3.40;;;1.30;;
64520;SDS011;50896;46.714;17.322;2023-03-14T12:58:35;2.70;;;1.20;;
64520;SDS011;50896;46.714;17.322;2023-03-14T13:01:06;3.22;;;1.30;;
64520;SDS011;50896;46.714;17.322;2023-03-14T13:03:47;2.70;;;1.33;;
64520;SDS011;50896;46.714;17.322;2023-03-14T13:12:02;5.30;;;2.53;;
64520;SDS011;50896;46.714;17.322;2023-03-14T13:14:35;7.00;;;2.78;;
64520;SDS011;50896;46.714;17.322;2023-03-14T13:17:03;4.95;;;1.50;;
64520;SDS011;50896;46.714;17.322;2023-03-14T13:19:55;4.35;;;2.90;;
64520;SDS011;50896;46.714;17.322;2023-03-14T13:22:26;6.03;;;2.80;;
64520;SDS011;50896;46.714;17.322;2023-03-14T13:25:05;3.67;;;2.30;;
64520;SDS011;50896;46.714;17.322;2023-03-14T13:27:34;4.65;;;1.90;;
64520;SDS011;50896;46.714;17.322;2023-03-14T13:30:24;4.65;;;2.40;;
64520;SDS011;50896;46.714;17.322;2023-03-14T13:35:26;2.42;;;1.15;;
64520;SDS011;50896;46.714;17.322;2023-03-14T13:37:55;2.08;;;1.20;;
64520;SDS011;50896;46.714;17.322;2023-03-14T13:40:37;2.80;;;1.13;;
64520;SDS011;50896;46.714;17.322;2023-03-14T13:43:06;4.68;;;1.17;;
64520;SDS011;50896;46.714;17.322;2023-03-14T13:45:56;2.35;;;1.20;;
64520;SDS011;50896;46.714;17.322;2023-03-14T13:48:25;3.47;;;1.80;;
64520;SDS011;50896;46.714;17.322;2023-03-14T13:50:56;3.45;;;2.08;;
64520;SDS011;50896;46.714;17.322;2023-03-14T13:53:27;4.60;;;2.80;;
64520;SDS011;50896;46.714;17.322;2023-03-14T13:55:54;3.30;;;1.63;;
64520;SDS011;50896;46.714;17.322;2023-03-14T13:58:22;3.47;;;1.17;;
64520;SDS011;50896;46.714;17.322;2023-03-14T14:01:34;4.93;;;1.20;;
64520;SDS011;50896;46.714;17.322;2023-03-14T14:03:44;5.85;;;1.20;;
64520;SDS011;50896;46.714;17.322;2023-03-14T14:06:37;3.88;;;1.10;;
64520;SDS011;50896;46.714;17.322;2023-03-14T14:09:12;2.38;;;0.85;;
64520;SDS011;50896;46.714;17.322;2023-03-14T14:11:49;4.97;;;1.17;;
64520;SDS011;50896;46.714;17.322;2023-03-14T14:14:42;2.35;;;1.05;;
64520;SDS011;50896;46.714;17.322;2023-03-14T14:17:17;4.80;;;1.42;;
64520;SDS011;50896;46.714;17.322;2023-03-14T14:19:47;2.47;;;1.10;;
64520;SDS011;50896;46.714;17.322;2023-03-14T14:22:15;5.10;;;1.23;;
64520;SDS011;50896;46.714;17.322;2023-03-14T14:24:43;6.10;;;0.93;;
64520;SDS011;50896;46.714;17.322;2023-03-14T14:29:43;2.17;;;1.20;;
64520;SDS011;50896;46.714;17.322;2023-03-14T14:32:13;2.87;;;1.00;;
64520;SDS011;50896;46.714;17.322;2023-03-14T14:34:45;2.45;;;1.10;;
64520;SDS011;50896;46.714;17.322;2023-03-14T14:37:29;3.65;;;1.00;;
64520;SDS011;50896;46.714;17.322;2023-03-14T14:39:59;3.97;;;1.35;;
64520;SDS011;50896;46.714;17.322;2023-03-14T14:42:33;3.95;;;2.40;;
64520;SDS011;50896;46.714;17.322;2023-03-14T14:45:02;3.42;;;1.88;;
64520;SDS011;50896;46.714;17.322;2023-03-14T14:47:29;10.35;;;6.57;;
64520;SDS011;50896;46.714;17.322;2023-03-14T14:49:58;13.15;;;7.20;;
64520;SDS011;50896;46.714;17.322;2023-03-14T14:52:43;4.97;;;2.00;;
64520;SDS011;50896;46.714;17.322;2023-03-14T14:55:19;3.85;;;1.83;;
64520;SDS011;50896;46.714;17.322;2023-03-14T14:57:51;3.03;;;1.10;;
64520;SDS011;50896;46.714;17.322;2023-03-14T15:00:21;5.15;;;1.23;;
64520;SDS011;50896;46.714;17.322;2023-03-14T15:02:51;1.52;;;1.10;;
64520;SDS011;50896;46.714;17.322;2023-03-14T15:05:25;2.83;;;1.05;;
64520;SDS011;50896;46.714;17.322;2023-03-14T15:07:54;4.35;;;1.00;;
64520;SDS011;50896;46.714;17.322;2023-03-14T15:10:22;4.93;;;0.95;;
64520;SDS011;50896;46.714;17.322;2023-03-14T15:12:50;4.18;;;1.33;;
64520;SDS011;50896;46.714;17.322;2023-03-14T15:15:17;2.70;;;0.95;;
64520;SDS011;50896;46.714;17.322;2023-03-14T15:17:45;2.10;;;0.90;;
64520;SDS011;50896;46.714;17.322;2023-03-14T15:20:13;3.92;;;1.10;;
64520;SDS011;50896;46.714;17.322;2023-03-14T15:22:41;2.67;;;1.02;;
64520;SDS011;50896;46.714;17.322;2023-03-14T15:25:08;3.50;;;0.80;;
64520;SDS011;50896;46.714;17.322;2023-03-14T15:27:52;3.72;;;1.00;;
64520;SDS011;50896;46.714;17.322;2023-03-14T15:30:19;3.33;;;0.80;;
64520;SDS011;50896;46.714;17.322;2023-03-14T15:32:46;2.60;;;0.85;;
64520;SDS011;50896;46.714;17.322;2023-03-14T15:35:13;4.15;;;1.50;;
64520;SDS011;50896;46.714;17.322;2023-03-14T15:37:43;2.65;;;1.30;;
64520;SDS011;50896;46.714;17.322;2023-03-14T15:40:11;2.45;;;1.02;;
64520;SDS011;50896;46.714;17.322;2023-03-14T15:42:40;1.77;;;0.90;;
64520;SDS011;50896;46.714;17.322;2023-03-14T15:45:08;2.13;;;1.00;;
64520;SDS011;50896;46.714;17.322;2023-03-14T15:47:35;2.83;;;1.02;;
64520;SDS011;50896;46.714;17.322;2023-03-14T15:50:02;2.25;;;0.85;;
64520;SDS011;50896;46.714;17.322;2023-03-14T15:52:29;4.53;;;1.23;;
64520;SDS011;50896;46.714;17.322;2023-03-14T15:54:56;5.85;;;1.20;;
64520;SDS011;50896;46.714;17.322;2023-03-14T15:57:23;2.72;;;1.00;;
64520;SDS011;50896;46.714;17.322;2023-03-14T15:59:51;3.60;;;1.00;;
64520;SDS011;50896;46.714;17.322;2023-03-14T16:02:18;1.20;;;0.90;;
64520;SDS011;50896;46.714;17.322;2023-03-14T16:04:45;2.30;;;1.10;;
64520;SDS011;50896;46.714;17.322;2023-03-14T16:07:12;4.22;;;2.00;;
64520;SDS011;50896;46.714;17.322;2023-03-14T16:09:39;8.38;;;4.10;;
64520;SDS011;50896;46.714;17.322;2023-03-14T16:12:05;13.45;;;6.68;;
64520;SDS011;50896;46.714;17.322;2023-03-14T16:14:34;10.65;;;6.30;;
64520;SDS011;50896;46.714;17.322;2023-03-14T16:17:01;9.02;;;6.38;;
64520;SDS011;50896;46.714;17.322;2023-03-14T16:19:28;5.60;;;3.63;;
64520;SDS011;50896;46.714;17.322;2023-03-14T16:21:57;7.82;;;5.13;;
64520;SDS011;50896;46.714;17.322;2023-03-14T16:24:23;5.07;;;3.70;;